sensor_id;sensor_type;location;lat;lon;timestamp;pressure;altitude;pressure_sealevel;temperature;humidity
61571;BME280;47463;49.884;10.010;2023-04-10T00:00:01;102700;;;3.7;77
61571;BME280;47463;49.884;10.010;2023-04-10T00:05:01;102690.00000000001;;;3.5;77
61571;BME280;47463;49.884;10.010;2023-04-10T00:10:01;102690.00000000001;;;3.5;78
61571;BME280;47463;49.884;10.010;2023-04-10T00:15:01;102690.00000000001;;;3.4;78
61571;BME280;47463;49.884;10.010;2023-04-10T00:20:01;102700;;;3.3;78
61571;BME280;47463;49.884;10.010;2023-04-10T00:25:01;102700;;;3.2;79
61571;BME280;47463;49.884;10.010;2023-04-10T00:30:01;102700;;;3.2;79
61571;BME280;47463;49.884;10.010;2023-04-10T00:35:01;102709.99999999999;;;3.5;79
61571;BME280;47463;49.884;10.010;2023-04-10T00:40:01;102690.00000000001;;;3.3;79
61571;BME280;47463;49.884;10.010;2023-04-10T00:45:01;102680;;;3.2;79
61571;BME280;47463;49.884;10.010;2023-04-10T00:50:01;102680;;;3.2;79
61571;BME280;47463;49.884;10.010;2023-04-10T00:55:01;102670;;;3;80
61571;BME280;47463;49.884;10.010;2023-04-10T01:00:01;102670;;;2.9;80
61571;BME280;47463;49.884;10.010;2023-04-10T01:05:01;102680;;;2.9;80
61571;BME280;47463;49.884;10.010;2023-04-10T01:10:03;102680;;;2.9;81
61571;BME280;47463;49.884;10.010;2023-04-10T01:15:02;102670;;;2.9;81
61571;BME280;47463;49.884;10.010;2023-04-10T01:20:01;102670;;;2.8;81
61571;BME280;47463;49.884;10.010;2023-04-10T01:25:04;102670;;;2.7;81
61571;BME280;47463;49.884;10.010;2023-04-10T01:30:01;102680;;;2.7;81
61571;BME280;47463;49.884;10.010;2023-04-10T01:35:02;102680;;;2.7;82
61571;BME280;47463;49.884;10.010;2023-04-10T01:40:01;102680;;;3;81
61571;BME280;47463;49.884;10.010;2023-04-10T01:45:01;102700;;;2.7;81
61571;BME280;47463;49.884;10.010;2023-04-10T01:50:01;102700;;;2.7;82
61571;BME280;47463;49.884;10.010;2023-04-10T01:55:01;102720;;;2.7;82
61571;BME280;47463;49.884;10.010;2023-04-10T02:00:01;102720;;;2.6;82
61571;BME280;47463;49.884;10.010;2023-04-10T02:05:01;102720;;;2.6;82
61571;BME280;47463;49.884;10.010;2023-04-10T02:10:01;102720;;;2.7;82
61571;BME280;47463;49.884;10.010;2023-04-10T02:15:01;102709.99999999999;;;2.6;82
61571;BME280;47463;49.884;10.010;2023-04-10T02:20:01;102709.99999999999;;;2.3;83
61571;BME280;47463;49.884;10.010;2023-04-10T02:25:01;102709.99999999999;;;2.1;84
61571;BME280;47463;49.884;10.010;2023-04-10T02:30:01;102709.99999999999;;;2.1;84
61571;BME280;47463;49.884;10.010;2023-04-10T02:35:01;102700;;;2.3;84
61571;BME280;47463;49.884;10.010;2023-04-10T02:40:01;102700;;;2.1;84
61571;BME280;47463;49.884;10.010;2023-04-10T02:45:01;102700;;;2;85
61571;BME280;47463;49.884;10.010;2023-04-10T02:50:01;102709.99999999999;;;2;85
61571;BME280;47463;49.884;10.010;2023-04-10T02:55:01;102700;;;1.9;85
61571;BME280;47463;49.884;10.010;2023-04-10T03:00:01;102690.00000000001;;;1.9;85
61571;BME280;47463;49.884;10.010;2023-04-10T03:05:01;102700;;;1.9;85
61571;BME280;47463;49.884;10.010;2023-04-10T03:10:01;102700;;;1.9;85
61571;BME280;47463;49.884;10.010;2023-04-10T03:15:01;102700;;;1.8;86
61571;BME280;47463;49.884;10.010;2023-04-10T03:20:01;102690.00000000001;;;1.8;86
61571;BME280;47463;49.884;10.010;2023-04-10T03:25:01;102690.00000000001;;;1.7;86
61571;BME280;47463;49.884;10.010;2023-04-10T03:30:01;102690.00000000001;;;1.7;86
61571;BME280;47463;49.884;10.010;2023-04-10T03:35:01;102690.00000000001;;;1.8;86
61571;BME280;47463;49.884;10.010;2023-04-10T03:40:02;102700;;;1.7;86
61571;BME280;47463;49.884;10.010;2023-04-10T03:45:01;102700;;;1.6;86
61571;BME280;47463;49.884;10.010;2023-04-10T03:50:01;102690.00000000001;;;1.8;87
61571;BME280;47463;49.884;10.010;2023-04-10T03:55:01;102690.00000000001;;;1.9;86
61571;BME280;47463;49.884;10.010;2023-04-10T04:00:01;102680;;;1.9;86
61571;BME280;47463;49.884;10.010;2023-04-10T04:05:01;102680;;;1.7;86
61571;BME280;47463;49.884;10.010;2023-04-10T04:10:01;102680;;;1.7;87
61571;BME280;47463;49.884;10.010;2023-04-10T04:15:01;102680;;;1.9;87
61571;BME280;47463;49.884;10.010;2023-04-10T04:20:01;102690.00000000001;;;1.7;87
61571;BME280;47463;49.884;10.010;2023-04-10T04:25:01;102690.00000000001;;;1.7;87
61571;BME280;47463;49.884;10.010;2023-04-10T04:30:01;102700;;;1.6;87
61571;BME280;47463;49.884;10.010;2023-04-10T04:35:01;102690.00000000001;;;1.6;87
61571;BME280;47463;49.884;10.010;2023-04-10T04:40:01;102690.00000000001;;;1.8;87
61571;BME280;47463;49.884;10.010;2023-04-10T04:45:01;102700;;;1.7;87
61571;BME280;47463;49.884;10.010;2023-04-10T04:50:01;102690.00000000001;;;1.8;87
61571;BME280;47463;49.884;10.010;2023-04-10T04:55:01;102690.00000000001;;;1.8;87
61571;BME280;47463;49.884;10.010;2023-04-10T05:00:01;102700;;;2.2;87
61571;BME280;47463;49.884;10.010;2023-04-10T05:05:01;102700;;;2.6;86
61571;BME280;47463;49.884;10.010;2023-04-10T05:10:01;102700;;;3;85
61571;BME280;47463;49.884;10.010;2023-04-10T05:15:01;102700;;;3.2;84
61571;BME280;47463;49.884;10.010;2023-04-10T05:20:01;102700;;;3.4;83
61571;BME280;47463;49.884;10.010;2023-04-10T05:25:01;102700;;;3.6;83
61571;BME280;47463;49.884;10.010;2023-04-10T05:30:01;102700;;;4;82
61571;BME280;47463;49.884;10.010;2023-04-10T05:35:01;102709.99999999999;;;4.2;81
61571;BME280;47463;49.884;10.010;2023-04-10T05:40:01;102700;;;4.5;80
61571;BME280;47463;49.884;10.010;2023-04-10T05:45:01;102700;;;4.9;80
61571;BME280;47463;49.884;10.010;2023-04-10T05:50:01;102709.99999999999;;;5;79
61571;BME280;47463;49.884;10.010;2023-04-10T05:55:01;102709.99999999999;;;5.2;78
61571;BME280;47463;49.884;10.010;2023-04-10T06:00:01;102709.99999999999;;;5.2;78
61571;BME280;47463;49.884;10.010;2023-04-10T06:05:01;102709.99999999999;;;5.1;78
61571;BME280;47463;49.884;10.010;2023-04-10T06:10:01;102709.99999999999;;;5.3;78
61571;BME280;47463;49.884;10.010;2023-04-10T06:15:01;102720;;;5.7;77
61571;BME280;47463;49.884;10.010;2023-04-10T06:20:01;102709.99999999999;;;6.1;77
61571;BME280;47463;49.884;10.010;2023-04-10T06:25:01;102700;;;6.1;76
61571;BME280;47463;49.884;10.010;2023-04-10T06:30:01;102700;;;6.5;76
61571;BME280;47463;49.884;10.010;2023-04-10T06:35:01;102700;;;6.8;75
61571;BME280;47463;49.884;10.010;2023-04-10T06:40:02;102700;;;7.2;74
61571;BME280;47463;49.884;10.010;2023-04-10T06:45:01;102690.00000000001;;;7.6;72
61571;BME280;47463;49.884;10.010;2023-04-10T06:50:01;102690.00000000001;;;7.6;73
61571;BME280;47463;49.884;10.010;2023-04-10T06:55:01;102690.00000000001;;;7.8;72
61571;BME280;47463;49.884;10.010;2023-04-10T07:00:01;102700;;;7.5;72
61571;BME280;47463;49.884;10.010;2023-04-10T07:05:01;102700;;;7.9;72
61571;BME280;47463;49.884;10.010;2023-04-10T07:10:01;102709.99999999999;;;7.8;72
61571;BME280;47463;49.884;10.010;2023-04-10T07:15:01;102690.00000000001;;;8.1;71
61571;BME280;47463;49.884;10.010;2023-04-10T07:20:01;102700;;;8.1;70
61571;BME280;47463;49.884;10.010;2023-04-10T07:25:01;102690.00000000001;;;8.2;71
61571;BME280;47463;49.884;10.010;2023-04-10T07:30:01;102690.00000000001;;;8.7;70
61571;BME280;47463;49.884;10.010;2023-04-10T07:35:01;102680;;;8.6;69
61571;BME280;47463;49.884;10.010;2023-04-10T07:40:01;102680;;;9;69
61571;BME280;47463;49.884;10.010;2023-04-10T07:45:01;102680;;;9;69
61571;BME280;47463;49.884;10.010;2023-04-10T07:50:01;102680;;;8.9;68
61571;BME280;47463;49.884;10.010;2023-04-10T07:55:01;102680;;;9.3;68
61571;BME280;47463;49.884;10.010;2023-04-10T08:00:01;102670;;;9.4;67
61571;BME280;47463;49.884;10.010;2023-04-10T08:05:01;102670;;;9.3;67
61571;BME280;47463;49.884;10.010;2023-04-10T08:10:01;102659.99999999999;;;9.6;66
61571;BME280;47463;49.884;10.010;2023-04-10T08:15:01;102650;;;9.7;66
61571;BME280;47463;49.884;10.010;2023-04-10T08:20:01;102650;;;10;65
61571;BME280;47463;49.884;10.010;2023-04-10T08:25:01;102640.00000000001;;;10.4;64
61571;BME280;47463;49.884;10.010;2023-04-10T08:30:01;102640.00000000001;;;10.9;64
61571;BME280;47463;49.884;10.010;2023-04-10T08:35:01;102640.00000000001;;;11.1;63
61571;BME280;47463;49.884;10.010;2023-04-10T08:40:01;102630;;;11.2;62
61571;BME280;47463;49.884;10.010;2023-04-10T08:45:01;102620;;;11.1;63
61571;BME280;47463;49.884;10.010;2023-04-10T08:50:02;102609.99999999999;;;11.3;61
61571;BME280;47463;49.884;10.010;2023-04-10T08:55:01;102609.99999999999;;;11.1;60
61571;BME280;47463;49.884;10.010;2023-04-10T09:00:01;102609.99999999999;;;11.4;60
61571;BME280;47463;49.884;10.010;2023-04-10T09:05:01;102590.00000000001;;;11.6;59
61571;BME280;47463;49.884;10.010;2023-04-10T09:10:01;102590.00000000001;;;11.7;59
61571;BME280;47463;49.884;10.010;2023-04-10T09:15:01;102570;;;12;59
61571;BME280;47463;49.884;10.010;2023-04-10T09:20:01;102570;;;12.1;57
61571;BME280;47463;49.884;10.010;2023-04-10T09:25:01;102570;;;11.8;57
61571;BME280;47463;49.884;10.010;2023-04-10T09:30:01;102559.99999999999;;;11.8;57
61571;BME280;47463;49.884;10.010;2023-04-10T09:35:01;102550;;;12.2;57
61571;BME280;47463;49.884;10.010;2023-04-10T09:40:01;102540.00000000001;;;12.7;57
61571;BME280;47463;49.884;10.010;2023-04-10T09:45:01;102530;;;13.2;56
61571;BME280;47463;49.884;10.010;2023-04-10T09:50:01;102530;;;13.4;54
61571;BME280;47463;49.884;10.010;2023-04-10T09:55:02;102509.99999999999;;;13;53
61571;BME280;47463;49.884;10.010;2023-04-10T10:00:02;102500;;;13.2;52
61571;BME280;47463;49.884;10.010;2023-04-10T10:05:01;102500;;;13.4;52
61571;BME280;47463;49.884;10.010;2023-04-10T10:10:01;102480;;;12.9;51
61571;BME280;47463;49.884;10.010;2023-04-10T10:15:07;102470;;;13.4;51
61571;BME280;47463;49.884;10.010;2023-04-10T10:20:01;102459.99999999999;;;13.4;50
61571;BME280;47463;49.884;10.010;2023-04-10T10:25:01;102459.99999999999;;;13.3;50
61571;BME280;47463;49.884;10.010;2023-04-10T10:30:01;102450;;;13.2;50
61571;BME280;47463;49.884;10.010;2023-04-10T10:35:01;102440.00000000001;;;13.5;51
61571;BME280;47463;49.884;10.010;2023-04-10T10:40:03;102440.00000000001;;;13.6;50
61571;BME280;47463;49.884;10.010;2023-04-10T10:45:05;102420;;;13.6;50
61571;BME280;47463;49.884;10.010;2023-04-10T10:50:01;102400;;;13.5;49
61571;BME280;47463;49.884;10.010;2023-04-10T10:55:12;102390;;;13.8;50
61571;BME280;47463;49.884;10.010;2023-04-10T11:00:01;102380;;;14.1;51
61571;BME280;47463;49.884;10.010;2023-04-10T11:05:01;102370;;;14.3;50
61571;BME280;47463;49.884;10.010;2023-04-10T11:10:01;102370;;;14.5;50
61571;BME280;47463;49.884;10.010;2023-04-10T11:15:01;102370;;;14.8;50
61571;BME280;47463;49.884;10.010;2023-04-10T11:20:01;102350;;;14.2;49
61571;BME280;47463;49.884;10.010;2023-04-10T11:25:01;102350;;;14.1;49
61571;BME280;47463;49.884;10.010;2023-04-10T11:30:01;102340;;;14.2;49
61571;BME280;47463;49.884;10.010;2023-04-10T11:35:01;102340;;;14.4;49
61571;BME280;47463;49.884;10.010;2023-04-10T11:40:02;102330;;;15.1;48
61571;BME280;47463;49.884;10.010;2023-04-10T11:45:21;102310;;;15;47
61571;BME280;47463;49.884;10.010;2023-04-10T11:50:01;102300;;;14.9;48
61571;BME280;47463;49.884;10.010;2023-04-10T11:55:01;102290;;;15.3;47
61571;BME280;47463;49.884;10.010;2023-04-10T12:00:01;102290;;;15.4;45
61571;BME280;47463;49.884;10.010;2023-04-10T12:05:01;102290;;;15.8;44
61571;BME280;47463;49.884;10.010;2023-04-10T12:10:01;102270;;;15.9;43
61571;BME280;47463;49.884;10.010;2023-04-10T12:15:02;102280;;;15.9;43
61571;BME280;47463;49.884;10.010;2023-04-10T12:20:01;102270;;;15.2;43
61571;BME280;47463;49.884;10.010;2023-04-10T12:25:01;102260;;;15.6;42
61571;BME280;47463;49.884;10.010;2023-04-10T12:30:05;102250;;;15.8;42
61571;BME280;47463;49.884;10.010;2023-04-10T12:35:01;102230;;;16;42
61571;BME280;47463;49.884;10.010;2023-04-10T12:40:04;102230;;;15.8;43
61571;BME280;47463;49.884;10.010;2023-04-10T12:45:01;102210;;;15.8;43
61571;BME280;47463;49.884;10.010;2023-04-10T12:50:01;102190;;;15.9;43
61571;BME280;47463;49.884;10.010;2023-04-10T12:55:08;102170;;;16.2;43
61571;BME280;47463;49.884;10.010;2023-04-10T13:00:01;102170;;;16.2;42
61571;BME280;47463;49.884;10.010;2023-04-10T13:05:01;102180;;;16.1;42
61571;BME280;47463;49.884;10.010;2023-04-10T13:10:01;102170;;;16;42
61571;BME280;47463;49.884;10.010;2023-04-10T13:15:01;102160;;;16.1;41
61571;BME280;47463;49.884;10.010;2023-04-10T13:20:01;102160;;;16.4;42
61571;BME280;47463;49.884;10.010;2023-04-10T13:25:01;102150;;;16.3;42
61571;BME280;47463;49.884;10.010;2023-04-10T13:30:01;102140;;;16.1;41
61571;BME280;47463;49.884;10.010;2023-04-10T13:35:01;102130;;;16.4;41
61571;BME280;47463;49.884;10.010;2023-04-10T13:40:01;102120;;;16.5;41
61571;BME280;47463;49.884;10.010;2023-04-10T13:45:01;102120;;;16.1;40
61571;BME280;47463;49.884;10.010;2023-04-10T13:50:01;102100;;;16.1;40
61571;BME280;47463;49.884;10.010;2023-04-10T13:55:01;102090;;;15.9;39
61571;BME280;47463;49.884;10.010;2023-04-10T14:00:01;102090;;;15.8;39
61571;BME280;47463;49.884;10.010;2023-04-10T14:05:01;102090;;;16.1;39
61571;BME280;47463;49.884;10.010;2023-04-10T14:10:01;102080;;;15.9;38
61571;BME280;47463;49.884;10.010;2023-04-10T14:15:01;102090;;;15.9;39
61571;BME280;47463;49.884;10.010;2023-04-10T14:20:01;102070;;;16.1;40
61571;BME280;47463;49.884;10.010;2023-04-10T14:25:01;102070;;;16.2;40
61571;BME280;47463;49.884;10.010;2023-04-10T14:30:01;102060;;;16.1;39
61571;BME280;47463;49.884;10.010;2023-04-10T14:35:01;102050;;;16.1;39
61571;BME280;47463;49.884;10.010;2023-04-10T14:40:01;102040;;;16.2;40
61571;BME280;47463;49.884;10.010;2023-04-10T14:45:01;102040;;;16.2;39
61571;BME280;47463;49.884;10.010;2023-04-10T14:50:01;102050;;;15.9;38
61571;BME280;47463;49.884;10.010;2023-04-10T14:55:01;102030;;;15.9;37
61571;BME280;47463;49.884;10.010;2023-04-10T15:00:01;102030;;;15.9;37
61571;BME280;47463;49.884;10.010;2023-04-10T15:05:01;102010;;;15.9;37
61571;BME280;47463;49.884;10.010;2023-04-10T15:10:01;102000;;;15.9;37
61571;BME280;47463;49.884;10.010;2023-04-10T15:15:01;101990;;;15.9;37
61571;BME280;47463;49.884;10.010;2023-04-10T15:20:01;101980;;;15.9;39
61571;BME280;47463;49.884;10.010;2023-04-10T15:25:01;101980;;;15.7;38
61571;BME280;47463;49.884;10.010;2023-04-10T15:30:01;101980;;;15.6;39
61571;BME280;47463;49.884;10.010;2023-04-10T15:35:01;101970;;;15.5;40
61571;BME280;47463;49.884;10.010;2023-04-10T15:40:01;101950;;;15.5;40
61571;BME280;47463;49.884;10.010;2023-04-10T15:45:01;101950;;;15.6;41
61571;BME280;47463;49.884;10.010;2023-04-10T15:50:01;101940;;;15.5;41
61571;BME280;47463;49.884;10.010;2023-04-10T15:55:01;101930;;;15.3;41
61571;BME280;47463;49.884;10.010;2023-04-10T16:00:01;101930;;;15.3;40
61571;BME280;47463;49.884;10.010;2023-04-10T16:05:01;101920;;;15.2;41
61571;BME280;47463;49.884;10.010;2023-04-10T16:10:01;101920;;;15.1;41
61571;BME280;47463;49.884;10.010;2023-04-10T16:15:01;101910;;;15;41
61571;BME280;47463;49.884;10.010;2023-04-10T16:20:03;101910;;;15;41
61571;BME280;47463;49.884;10.010;2023-04-10T16:25:01;101900;;;15.1;40
61571;BME280;47463;49.884;10.010;2023-04-10T16:30:01;101880;;;15;40
61571;BME280;47463;49.884;10.010;2023-04-10T16:35:01;101880;;;14.7;41
61571;BME280;47463;49.884;10.010;2023-04-10T16:40:01;101880;;;14.6;41
61571;BME280;47463;49.884;10.010;2023-04-10T16:45:01;101860;;;14.5;42
61571;BME280;47463;49.884;10.010;2023-04-10T16:50:01;101850;;;14.5;42
61571;BME280;47463;49.884;10.010;2023-04-10T16:55:01;101830;;;14.4;42
61571;BME280;47463;49.884;10.010;2023-04-10T17:00:01;101830;;;14.4;42
61571;BME280;47463;49.884;10.010;2023-04-10T17:05:01;101820;;;14.3;42
61571;BME280;47463;49.884;10.010;2023-04-10T17:10:01;101810;;;14.3;43
61571;BME280;47463;49.884;10.010;2023-04-10T17:15:01;101810;;;14.2;42
61571;BME280;47463;49.884;10.010;2023-04-10T17:20:01;101810;;;14;43
61571;BME280;47463;49.884;10.010;2023-04-10T17:25:01;101810;;;13.8;43
61571;BME280;47463;49.884;10.010;2023-04-10T17:30:01;101800;;;13.7;43
61571;BME280;47463;49.884;10.010;2023-04-10T17:35:01;101800;;;13.6;43
61571;BME280;47463;49.884;10.010;2023-04-10T17:40:01;101790;;;13.5;43
61571;BME280;47463;49.884;10.010;2023-04-10T17:45:01;101770;;;13.4;44
61571;BME280;47463;49.884;10.010;2023-04-10T17:50:01;101780;;;13.2;44
61571;BME280;47463;49.884;10.010;2023-04-10T17:55:01;101760;;;13.1;44
61571;BME280;47463;49.884;10.010;2023-04-10T18:00:01;101760;;;13;45
61571;BME280;47463;49.884;10.010;2023-04-10T18:05:01;101770;;;13;45
61571;BME280;47463;49.884;10.010;2023-04-10T18:10:01;101770;;;12.8;45
61571;BME280;47463;49.884;10.010;2023-04-10T18:15:01;101760;;;12.8;45
61571;BME280;47463;49.884;10.010;2023-04-10T18:20:01;101750;;;12.7;45
61571;BME280;47463;49.884;10.010;2023-04-10T18:25:01;101760;;;12.5;46
61571;BME280;47463;49.884;10.010;2023-04-10T18:30:01;101750;;;12.4;46
61571;BME280;47463;49.884;10.010;2023-04-10T18:35:01;101750;;;12.3;47
61571;BME280;47463;49.884;10.010;2023-04-10T18:40:01;101740;;;12.2;47
61571;BME280;47463;49.884;10.010;2023-04-10T18:45:01;101730;;;12.1;48
61571;BME280;47463;49.884;10.010;2023-04-10T18:50:01;101730;;;12;48
61571;BME280;47463;49.884;10.010;2023-04-10T18:55:01;101720;;;12;48
61571;BME280;47463;49.884;10.010;2023-04-10T19:00:01;101740;;;12.1;48
61571;BME280;47463;49.884;10.010;2023-04-10T19:05:01;101740;;;12.2;47
61571;BME280;47463;49.884;10.010;2023-04-10T19:10:01;101750;;;12.1;48
61571;BME280;47463;49.884;10.010;2023-04-10T19:15:01;101740;;;12;48
61571;BME280;47463;49.884;10.010;2023-04-10T19:20:01;101720;;;12;48
61571;BME280;47463;49.884;10.010;2023-04-10T19:25:01;101730;;;12;48
61571;BME280;47463;49.884;10.010;2023-04-10T19:30:01;101720;;;12.1;47
61571;BME280;47463;49.884;10.010;2023-04-10T19:35:01;101710;;;12.1;48
61571;BME280;47463;49.884;10.010;2023-04-10T19:40:01;101740;;;12;48
61571;BME280;47463;49.884;10.010;2023-04-10T19:45:01;101740;;;11.9;48
61571;BME280;47463;49.884;10.010;2023-04-10T19:50:01;101700;;;11.9;48
61571;BME280;47463;49.884;10.010;2023-04-10T19:55:01;101710;;;12;48
61571;BME280;47463;49.884;10.010;2023-04-10T20:00:01;101710;;;12;48
61571;BME280;47463;49.884;10.010;2023-04-10T20:05:01;101720;;;12;48
61571;BME280;47463;49.884;10.010;2023-04-10T20:10:01;101720;;;11.8;49
61571;BME280;47463;49.884;10.010;2023-04-10T20:15:01;101700;;;11.7;49
61571;BME280;47463;49.884;10.010;2023-04-10T20:20:01;101690;;;11.7;49
61571;BME280;47463;49.884;10.010;2023-04-10T20:25:01;101690;;;11.5;50
61571;BME280;47463;49.884;10.010;2023-04-10T20:30:01;101680;;;11.5;50
61571;BME280;47463;49.884;10.010;2023-04-10T20:35:01;101680;;;11.5;50
61571;BME280;47463;49.884;10.010;2023-04-10T20:40:01;101670;;;11.4;51
61571;BME280;47463;49.884;10.010;2023-04-10T20:45:01;101660;;;11.4;51
61571;BME280;47463;49.884;10.010;2023-04-10T20:50:01;101640;;;11.4;51
61571;BME280;47463;49.884;10.010;2023-04-10T20:55:01;101640;;;11.3;51
61571;BME280;47463;49.884;10.010;2023-04-10T21:00:01;101660;;;11.3;51
61571;BME280;47463;49.884;10.010;2023-04-10T21:05:01;101640;;;11.3;52
61571;BME280;47463;49.884;10.010;2023-04-10T21:10:01;101620;;;11.2;52
61571;BME280;47463;49.884;10.010;2023-04-10T21:15:01;101600;;;11.1;53
61571;BME280;47463;49.884;10.010;2023-04-10T21:20:01;101600;;;11;53
61571;BME280;47463;49.884;10.010;2023-04-10T21:25:01;101600;;;11;53
61571;BME280;47463;49.884;10.010;2023-04-10T21:30:01;101610;;;11;53
61571;BME280;47463;49.884;10.010;2023-04-10T21:35:01;101600;;;11;54
61571;BME280;47463;49.884;10.010;2023-04-10T21:40:01;101600;;;11.1;53
61571;BME280;47463;49.884;10.010;2023-04-10T21:45:01;101590;;;11.2;53
61571;BME280;47463;49.884;10.010;2023-04-10T21:50:01;101580;;;11.2;53
61571;BME280;47463;49.884;10.010;2023-04-10T21:55:01;101580;;;11.3;53
61571;BME280;47463;49.884;10.010;2023-04-10T22:00:01;101590;;;11.2;53
61571;BME280;47463;49.884;10.010;2023-04-10T22:05:01;101580;;;11.3;53
61571;BME280;47463;49.884;10.010;2023-04-10T22:10:01;101560;;;11.3;53
61571;BME280;47463;49.884;10.010;2023-04-10T22:15:01;101560;;;11.4;52
61571;BME280;47463;49.884;10.010;2023-04-10T22:20:01;101570;;;11.3;53
61571;BME280;47463;49.884;10.010;2023-04-10T22:25:01;101570;;;11.3;53
61571;BME280;47463;49.884;10.010;2023-04-10T22:30:01;101550;;;11.3;53
61571;BME280;47463;49.884;10.010;2023-04-10T22:35:01;101530;;;11.3;53
61571;BME280;47463;49.884;10.010;2023-04-10T22:40:01;101510;;;11.3;53
61571;BME280;47463;49.884;10.010;2023-04-10T22:45:01;101510;;;11.2;53
61571;BME280;47463;49.884;10.010;2023-04-10T22:50:01;101420;;;10.9;55
61571;BME280;47463;49.884;10.010;2023-04-10T22:55:01;101410;;;10.8;56
61571;BME280;47463;49.884;10.010;2023-04-10T23:00:01;101410;;;10.8;55
61571;BME280;47463;49.884;10.010;2023-04-10T23:05:01;101410;;;11;54
61571;BME280;47463;49.884;10.010;2023-04-10T23:10:01;101420;;;11.1;54
61571;BME280;47463;49.884;10.010;2023-04-10T23:15:01;101430;;;11.4;52
61571;BME280;47463;49.884;10.010;2023-04-10T23:20:01;101430;;;11.4;52
61571;BME280;47463;49.884;10.010;2023-04-10T23:25:01;101420;;;11.3;53
61571;BME280;47463;49.884;10.010;2023-04-10T23:30:01;101420;;;11.2;53
61571;BME280;47463;49.884;10.010;2023-04-10T23:35:01;101420;;;11.5;53
61571;BME280;47463;49.884;10.010;2023-04-10T23:40:01;101420;;;11.6;52
61571;BME280;47463;49.884;10.010;2023-04-10T23:45:01;101410;;;11.6;52
61571;BME280;47463;49.884;10.010;2023-04-10T23:50:02;101410;;;11.5;52
61571;BME280;47463;49.884;10.010;2023-04-10T23:55:01;101390;;;11.5;52
